createdAt,value
2019-06-01T00:03:12.281Z,100730.38
2019-06-01T00:07:19.113Z,100737.36
2019-06-01T00:11:25.910Z,100737.24
2019-06-01T00:15:32.818Z,100734.50
2019-06-01T00:19:39.953Z,100733.20
2019-06-01T00:23:46.809Z,100730.06
2019-06-01T00:27:53.695Z,100729.13
2019-06-01T00:32:00.483Z,100735.98
2019-06-01T00:36:07.343Z,100735.69
2019-06-01T00:40:14.245Z,100733.84
2019-06-01T00:44:21.111Z,100732.41
2019-06-01T00:48:27.879Z,100735.39
2019-06-01T00:52:34.729Z,100735.72
2019-06-01T00:56:41.599Z,100729.08
2019-06-01T01:00:49.426Z,100728.56
2019-06-01T01:05:16.050Z,100731.72
2019-06-01T01:09:22.846Z,100727.56
2019-06-01T01:13:29.896Z,100739.91
2019-06-01T01:17:36.912Z,100734.55
2019-06-01T01:21:43.716Z,100732.78
2019-06-01T01:25:50.668Z,100735.02
2019-06-01T01:29:57.396Z,100733.68
2019-06-01T01:34:04.093Z,100730.13
2019-06-01T01:38:10.837Z,100725.88
2019-06-01T01:42:17.520Z,100729.84
2019-06-01T01:46:24.233Z,100731.17
2019-06-01T01:50:30.948Z,100722.09
2019-06-01T01:54:37.788Z,100726.54
2019-06-01T01:58:44.684Z,100729.19
2019-06-01T02:02:51.874Z,100721.63
2019-06-01T02:06:58.568Z,100711.52
2019-06-01T02:11:05.306Z,100706.67
2019-06-01T02:15:12.181Z,100708.52
2019-06-01T02:19:19.103Z,100708.09
2019-06-01T02:23:25.872Z,100701.54
2019-06-01T02:27:32.795Z,100705.78
2019-06-01T02:31:42.552Z,100706.05
2019-06-01T02:35:48.198Z,100708.20
2019-06-01T02:39:56.663Z,100706.21
2019-06-01T02:44:04.350Z,100701.19
2019-06-01T02:48:12.026Z,100703.70
2019-06-01T02:52:18.904Z,100709.47
2019-06-01T02:56:25.647Z,100706.95
2019-06-01T03:01:22.262Z,100702.95
2019-06-01T03:05:31.565Z,100708.59
2019-06-01T03:09:39.956Z,100710.28
2019-06-01T03:13:50.547Z,100714.81
2019-06-01T03:18:01.632Z,100714.64
2019-06-01T03:22:10.497Z,100712.25
2019-06-01T03:26:21.135Z,100710.84
2019-06-01T03:30:45.148Z,100707.75
2019-06-01T03:34:49.863Z,100711.71
2019-06-01T03:38:56.706Z,100706.94
2019-06-01T03:43:04.274Z,100712.45
2019-06-01T03:47:11.880Z,100712.75
2019-06-01T03:51:18.699Z,100717.17
2019-06-01T03:55:25.439Z,100713.17
2019-06-01T03:59:32.213Z,100712.88
2019-06-01T04:03:39.225Z,100715.84
2019-06-01T04:07:46.071Z,100715.37
2019-06-01T04:11:53.040Z,100721.14
2019-06-01T04:15:59.889Z,100720.45
2019-06-01T04:20:08.191Z,100724.88
2019-06-01T04:24:15.912Z,100719.45
2019-06-01T04:28:22.917Z,100716.14
2019-06-01T04:32:29.678Z,100710.38
2019-06-01T04:36:36.382Z,100714.78
2019-06-01T04:40:43.105Z,100722.74
2019-06-01T04:44:49.894Z,100727.73
2019-06-01T04:48:56.597Z,100730.70
2019-06-01T04:53:04.578Z,100726.75
2019-06-01T04:57:11.553Z,100730.05
2019-06-01T05:01:18.359Z,100731.42
2019-06-01T05:05:25.116Z,100738.22
2019-06-01T05:09:31.878Z,100739.55
2019-06-01T05:13:38.610Z,100738.42
2019-06-01T05:17:45.367Z,100739.66
2019-06-01T05:21:52.300Z,100747.42
2019-06-01T05:25:59.120Z,100758.28
2019-06-01T05:30:07.320Z,100764.17
2019-06-01T05:34:14.244Z,100757.92
2019-06-01T05:38:21.009Z,100761.47
2019-06-01T05:42:27.811Z,100760.44
2019-06-01T05:46:36.314Z,100768.65
2019-06-01T05:50:44.027Z,100762.31
2019-06-01T05:54:50.899Z,100758.01
2019-06-01T05:58:57.701Z,100763.13
2019-06-01T06:03:06.904Z,100769.36
2019-06-01T06:07:14.736Z,100770.23
2019-06-01T06:11:21.553Z,100767.52
2019-06-01T06:15:28.670Z,100772.97
2019-06-01T06:19:35.566Z,100770.93
2019-06-01T06:23:42.347Z,100772.17
2019-06-01T06:27:49.216Z,100772.08
2019-06-01T06:31:56.193Z,100776.50
2019-06-01T06:36:03.572Z,100774.02
2019-06-01T06:40:10.887Z,100763.09
2019-06-01T06:44:18.526Z,100762.86
2019-06-01T06:48:25.575Z,100756.27
2019-06-01T06:52:32.383Z,100758.66
2019-06-01T06:56:39.175Z,100760.33
2019-06-01T07:00:46.042Z,100767.01
2019-06-01T07:04:52.969Z,100772.55
2019-06-01T07:08:59.909Z,100776.34
2019-06-01T07:13:06.742Z,100773.50
2019-06-01T07:17:15.700Z,100773.81
2019-06-01T07:21:23.646Z,100769.20
2019-06-01T07:25:30.655Z,100766.16
2019-06-01T07:29:37.432Z,100764.28
2019-06-01T07:33:46.426Z,100765.85
2019-06-01T07:37:53.255Z,100764.83
2019-06-01T07:42:00.096Z,100768.31
2019-06-01T07:46:06.851Z,100754.80
2019-06-01T07:50:14.445Z,100764.33
2019-06-01T07:54:22.273Z,100767.00
2019-06-01T07:58:29.052Z,100768.06
2019-06-01T08:02:36.144Z,100773.22
2019-06-01T08:06:47.408Z,100768.42
2019-06-01T08:10:52.483Z,100771.33
2019-06-01T08:14:59.342Z,100770.97
2019-06-01T08:19:07.089Z,100767.38
2019-06-01T08:23:13.867Z,100767.64
2019-06-01T08:27:20.731Z,100761.65
2019-06-01T08:31:28.698Z,100762.59
2019-06-01T08:35:35.557Z,100756.63
2019-06-01T08:39:42.642Z,100751.14
2019-06-01T08:43:49.645Z,100751.86
2019-06-01T08:47:56.541Z,100749.20
2019-06-01T08:52:03.649Z,100747.69
2019-06-01T08:56:10.402Z,100746.09
2019-06-01T09:00:17.491Z,100750.92
2019-06-01T09:04:24.588Z,100750.73
2019-06-01T09:08:31.389Z,100742.66
2019-06-01T09:12:38.273Z,100746.19
2019-06-01T09:16:45.012Z,100743.23
2019-06-01T09:20:51.821Z,100748.50
2019-06-01T09:24:58.613Z,100744.66
2019-06-01T09:29:05.458Z,100748.09
2019-06-01T09:33:12.293Z,100735.70
2019-06-01T09:37:19.516Z,100743.97
2019-06-01T09:41:28.336Z,100742.95
2019-06-01T09:45:36.598Z,100737.81
2019-06-01T09:49:43.333Z,100743.55
2019-06-01T09:53:50.097Z,100742.48
2019-06-01T09:57:57.120Z,100725.42
2019-06-01T10:02:03.830Z,100727.70
2019-06-01T10:06:13.978Z,100724.97
2019-06-01T10:10:20.072Z,100721.56
2019-06-01T10:14:26.922Z,100720.98
2019-06-01T10:18:36.941Z,100713.88
2019-06-01T10:22:44.961Z,100717.50
2019-06-01T10:26:52.169Z,100711.31
2019-06-01T10:31:11.362Z,100699.05
2019-06-01T10:35:18.329Z,100699.95
2019-06-01T10:39:51.981Z,100703.34
2019-06-01T10:43:59.228Z,100686.56
2019-06-01T10:48:06.093Z,100697.22
2019-06-01T10:52:14.384Z,100687.93
2019-06-01T10:56:21.386Z,100689.86
2019-06-01T11:00:39.658Z,100692.16
2019-06-01T11:04:37.120Z,100683.33
2019-06-01T11:08:43.850Z,100675.86
2019-06-01T11:12:50.726Z,100680.27
2019-06-01T11:16:57.549Z,100674.49
2019-06-01T11:21:04.477Z,100683.28
2019-06-01T11:25:11.996Z,100675.73
2019-06-01T11:29:18.780Z,100665.34
2019-06-01T11:33:26.832Z,100663.97
2019-06-01T11:37:34.216Z,100657.95
2019-06-01T11:41:40.979Z,100656.81
2019-06-01T11:45:47.825Z,100650.96
2019-06-01T11:49:54.767Z,100642.68
2019-06-01T11:54:01.768Z,100634.74
2019-06-01T11:58:08.739Z,100632.41
2019-06-01T12:02:15.869Z,100627.43
2019-06-01T12:06:22.823Z,100622.10
2019-06-01T12:10:29.649Z,100613.87
2019-06-01T12:14:36.444Z,100610.62
2019-06-01T12:18:44.627Z,100605.81
2019-06-01T12:22:54.736Z,100605.41
2019-06-01T12:27:01.608Z,100605.42
2019-06-01T12:31:08.605Z,100590.06
2019-06-01T12:35:15.916Z,100595.66
2019-06-01T12:39:23.144Z,100586.75
2019-06-01T12:43:30.088Z,100585.77
2019-06-01T12:47:49.647Z,100583.73
2019-06-01T12:51:54.595Z,100574.83
2019-06-01T12:56:01.417Z,100574.05
2019-06-01T13:00:09.533Z,100570.10
2019-06-01T13:04:16.407Z,100565.39
2019-06-01T13:08:23.299Z,100561.72
2019-06-01T13:12:30.200Z,100556.70
2019-06-01T13:16:37.314Z,100557.34
2019-06-01T13:20:45.306Z,100555.77
2019-06-01T13:24:52.220Z,100549.88
2019-06-01T13:28:59.007Z,100538.37
2019-06-01T13:33:06.303Z,100534.00
2019-06-01T13:37:13.079Z,100530.12
2019-06-01T13:41:20.055Z,100526.31
2019-06-01T13:45:26.837Z,100518.02
2019-06-01T13:49:33.857Z,100513.19
2019-06-01T13:53:40.829Z,100519.17
2019-06-01T13:57:48.311Z,100503.28
2019-06-01T14:01:55.432Z,100518.89
2019-06-01T14:06:02.291Z,100500.95
2019-06-01T14:10:09.405Z,100500.25
2019-06-01T14:14:16.336Z,100485.63
2019-06-01T14:18:23.162Z,100478.77
2019-06-01T14:22:32.981Z,100483.14
2019-06-01T14:26:39.673Z,100480.39
2019-06-01T14:30:48.450Z,100479.14
2019-06-01T14:34:55.400Z,100476.41
2019-06-01T14:39:02.243Z,100461.27
2019-06-01T14:43:09.374Z,100472.98
2019-06-01T14:47:18.662Z,100474.78
2019-06-01T14:51:24.487Z,100464.91
2019-06-01T14:55:31.229Z,100460.80
2019-06-01T14:59:37.983Z,100454.10
2019-06-01T15:03:44.785Z,100446.34
2019-06-01T15:07:52.345Z,100444.13
2019-06-01T15:11:59.272Z,100436.88
2019-06-01T15:16:06.156Z,100434.58
2019-06-01T15:20:14.318Z,100430.28
2019-06-01T15:24:21.203Z,100428.11
2019-06-01T15:28:28.093Z,100418.26
2019-06-01T15:32:34.948Z,100416.99
2019-06-01T15:36:41.796Z,100415.33
2019-06-01T15:40:48.745Z,100410.25
2019-06-01T15:44:55.488Z,100402.94
2019-06-01T15:49:02.314Z,100402.34
2019-06-01T15:53:09.054Z,100402.81
2019-06-01T15:57:15.808Z,100397.08
2019-06-01T16:01:22.960Z,100390.64
2019-06-01T16:05:29.859Z,100388.98
2019-06-01T16:09:42.553Z,100377.25
2019-06-01T16:13:45.242Z,100374.66
2019-06-01T16:17:51.932Z,100378.09
2019-06-01T16:22:00.235Z,100372.98
2019-06-01T16:26:15.617Z,100373.24
2019-06-01T16:30:16.233Z,100364.22
2019-06-01T16:34:23.005Z,100368.77
2019-06-01T16:38:29.707Z,100363.39
2019-06-01T16:42:36.541Z,100360.91
2019-06-01T16:46:46.045Z,100365.52
2019-06-01T16:50:52.940Z,100355.71
2019-06-01T16:55:00.484Z,100358.85
2019-06-01T16:59:10.251Z,100358.48
2019-06-01T17:03:18.064Z,100359.51
2019-06-01T17:07:24.832Z,100357.47
2019-06-01T17:11:31.558Z,100352.19
2019-06-01T17:15:39.527Z,100353.99
2019-06-01T17:19:46.255Z,100358.87
2019-06-01T17:23:53.099Z,100354.35
2019-06-01T17:28:00.993Z,100356.05
2019-06-01T17:32:22.756Z,100355.16
2019-06-01T17:36:16.298Z,100353.55
2019-06-01T17:40:36.820Z,100349.17
2019-06-01T17:44:31.762Z,100348.88
2019-06-01T17:48:38.560Z,100351.53
2019-06-01T17:52:45.418Z,100346.97
2019-06-01T17:56:52.312Z,100345.08
2019-06-01T18:00:59.685Z,100341.39
2019-06-01T18:05:08.129Z,100346.28
2019-06-01T18:09:16.204Z,100343.73
2019-06-01T18:13:23.514Z,100345.84
2019-06-01T18:17:30.474Z,100346.72
2019-06-01T18:21:37.216Z,100341.94
2019-06-01T18:25:44.208Z,100339.13
2019-06-01T18:29:50.965Z,100339.13
2019-06-01T18:33:57.889Z,100337.66
2019-06-01T18:38:05.763Z,100332.75
2019-06-01T18:42:12.796Z,100333.52
2019-06-01T18:46:19.614Z,100330.34
2019-06-01T18:50:26.699Z,100335.72
2019-06-01T18:54:33.559Z,100330.45
2019-06-01T18:58:40.307Z,100328.10
2019-06-01T19:02:47.059Z,100327.53
2019-06-01T19:06:53.761Z,100326.81
2019-06-01T19:11:03.020Z,100330.49
2019-06-01T19:15:25.143Z,100319.54
2019-06-01T19:19:20.896Z,100319.09
2019-06-01T19:23:28.553Z,100323.62
2019-06-01T19:27:35.352Z,100330.32
2019-06-01T19:31:42.411Z,100327.70
2019-06-01T19:35:49.834Z,100329.49
2019-06-01T19:39:56.711Z,100339.05
2019-06-01T19:44:03.655Z,100339.05
2019-06-01T19:48:12.345Z,100340.05
2019-06-01T19:52:19.279Z,100340.05
2019-06-01T19:56:26.188Z,100340.70
2019-06-01T20:00:33.204Z,100340.57
2019-06-01T20:04:40.216Z,100342.03
2019-06-01T20:08:48.907Z,100341.16
2019-06-01T20:12:55.726Z,100338.58
2019-06-01T20:17:02.630Z,100340.79
2019-06-01T20:21:09.506Z,100335.70
2019-06-01T20:25:17.579Z,100338.49
2019-06-01T20:29:24.712Z,100338.27
2019-06-01T20:33:34.427Z,100340.21
2019-06-01T20:37:40.767Z,100334.32
2019-06-01T20:41:47.733Z,100330.88
2019-06-01T20:45:57.112Z,100331.73
2019-06-01T20:50:05.459Z,100337.50
2019-06-01T20:54:12.979Z,100336.14
2019-06-01T20:58:22.021Z,100337.59
2019-06-01T21:02:29.513Z,100338.16
2019-06-01T21:06:37.326Z,100336.04
2019-06-01T21:10:44.580Z,100339.04
2019-06-01T21:14:51.793Z,100335.02
2019-06-01T21:18:58.603Z,100344.77
2019-06-01T21:23:05.679Z,100345.89
2019-06-01T21:27:12.561Z,100336.68
2019-06-01T21:31:19.370Z,100341.02
2019-06-01T21:35:26.190Z,100343.46
2019-06-01T21:39:34.583Z,100341.05
2019-06-01T21:43:43.414Z,100340.77
2019-06-01T21:47:50.497Z,100344.56
2019-06-01T21:51:57.267Z,100340.77
2019-06-01T21:56:04.205Z,100341.32
2019-06-01T22:00:13.584Z,100334.85
2019-06-01T22:04:23.015Z,100334.33
2019-06-01T22:08:29.893Z,100333.23
2019-06-01T22:12:36.638Z,100341.06
2019-06-01T22:16:43.715Z,100336.73
2019-06-01T22:20:50.606Z,100334.81
2019-06-01T22:24:57.944Z,100335.37
2019-06-01T22:29:05.074Z,100332.13
2019-06-01T22:33:11.883Z,100326.17
2019-06-01T22:37:19.745Z,100324.29
2019-06-01T22:41:28.026Z,100319.15
2019-06-01T22:45:35.196Z,100321.53
2019-06-01T22:49:42.187Z,100318.28
2019-06-01T22:53:49.092Z,100316.08
2019-06-01T22:57:58.754Z,100316.86
2019-06-01T23:02:05.652Z,100320.32
2019-06-01T23:06:12.426Z,100312.44
2019-06-01T23:10:19.199Z,100301.36
2019-06-01T23:14:27.291Z,100302.41
2019-06-01T23:18:34.106Z,100307.23
2019-06-01T23:22:40.798Z,100304.22
2019-06-01T23:26:47.551Z,100297.76
2019-06-01T23:30:54.451Z,100301.77
2019-06-01T23:35:01.229Z,100295.81
2019-06-01T23:39:08.765Z,100294.94
2019-06-01T23:43:15.465Z,100292.48
2019-06-01T23:47:23.025Z,100291.67
2019-06-01T23:51:29.989Z,100281.61
2019-06-01T23:55:36.749Z,100278.38
2019-06-01T23:59:43.607Z,100277.27
